createdAt,value
2023-02-06T00:00:07.711Z,-0.76
2023-02-06T00:02:36.989Z,-0.77
2023-02-06T00:05:07.971Z,-0.77
2023-02-06T00:07:37.000Z,-0.76
2023-02-06T00:10:07.957Z,-0.74
2023-02-06T00:12:38.512Z,-0.75
2023-02-06T00:15:09.136Z,-0.75
2023-02-06T00:17:39.301Z,-0.75
2023-02-06T00:20:11.640Z,-0.76
2023-02-06T00:22:40.697Z,-0.75
2023-02-06T00:25:10.657Z,-0.74
2023-02-06T00:27:42.014Z,-0.74
2023-02-06T00:30:13.459Z,-0.74
2023-02-06T00:32:43.801Z,-0.76
2023-02-06T00:35:12.308Z,-0.77
2023-02-06T00:37:42.835Z,-0.80
2023-02-06T00:40:12.418Z,-0.79
2023-02-06T00:42:41.254Z,-0.80
2023-02-06T00:45:10.237Z,-0.77
2023-02-06T00:47:41.031Z,-0.77
2023-02-06T00:50:11.641Z,-0.79
2023-02-06T00:52:40.395Z,-0.78
2023-02-06T00:55:09.478Z,-0.83
2023-02-06T00:57:38.900Z,-0.80
2023-02-06T01:00:09.180Z,-0.80
2023-02-06T01:02:39.169Z,-0.79
2023-02-06T01:05:08.856Z,-0.76
2023-02-06T01:07:40.183Z,-0.80
2023-02-06T01:10:10.708Z,-0.83
2023-02-06T01:12:41.623Z,-0.87
2023-02-06T01:15:12.068Z,-0.86
2023-02-06T01:17:42.642Z,-0.84
2023-02-06T01:20:14.384Z,-0.84
2023-02-06T01:22:43.448Z,-0.83
2023-02-06T01:25:14.340Z,-0.81
2023-02-06T01:27:43.930Z,-0.80
2023-02-06T01:30:14.628Z,-0.81
2023-02-06T01:32:45.372Z,-0.84
2023-02-06T01:35:16.323Z,-0.82
2023-02-06T01:37:45.096Z,-0.81
2023-02-06T01:40:15.727Z,-0.80
2023-02-06T01:42:44.534Z,-0.83
2023-02-06T01:45:28.431Z,-0.84
2023-02-06T01:48:08.552Z,-0.78
2023-02-06T01:50:39.766Z,-0.83
2023-02-06T01:53:11.736Z,-0.82
2023-02-06T01:55:42.054Z,-0.84
2023-02-06T01:58:12.932Z,-0.85
2023-02-06T02:00:42.067Z,-0.86
2023-02-06T02:03:10.946Z,-0.85
2023-02-06T02:05:41.739Z,-0.88
2023-02-06T02:08:19.479Z,-0.91
2023-02-06T02:10:49.552Z,-0.93
2023-02-06T02:13:19.018Z,-0.96
2023-02-06T02:16:02.304Z,-1.00
2023-02-06T02:18:52.143Z,-1.00
2023-02-06T02:22:05.866Z,-1.03
2023-02-06T02:25:01.991Z,-1.04
2023-02-06T02:27:48.788Z,-1.04
2023-02-06T02:30:47.580Z,-1.05
2023-02-06T02:33:54.674Z,-1.07
2023-02-06T02:36:35.492Z,-1.08
2023-02-06T02:39:22.471Z,-1.06
2023-02-06T02:42:00.150Z,-1.05
2023-02-06T02:44:50.098Z,-1.04
2023-02-06T02:47:21.706Z,-1.06
2023-02-06T02:49:51.094Z,-1.05
2023-02-06T02:52:21.547Z,-1.04
2023-02-06T02:54:50.441Z,-1.06
2023-02-06T02:57:23.998Z,-1.07
2023-02-06T02:59:52.908Z,-1.11
2023-02-06T03:02:25.949Z,-1.12
2023-02-06T03:05:01.673Z,-1.11
2023-02-06T03:07:39.582Z,-1.08
2023-02-06T03:10:32.072Z,-1.07
2023-02-06T03:13:25.649Z,-1.06
2023-02-06T03:16:33.072Z,-1.08
2023-02-06T03:19:13.709Z,-1.05
2023-02-06T03:21:43.318Z,-1.09
2023-02-06T03:24:17.976Z,-1.08
2023-02-06T03:26:49.081Z,-1.11
2023-02-06T03:29:18.326Z,-1.14
2023-02-06T03:32:13.649Z,-1.15
2023-02-06T03:34:53.586Z,-1.15
2023-02-06T03:37:22.641Z,-1.12
2023-02-06T03:39:53.263Z,-1.11
2023-02-06T03:42:22.626Z,-1.11
2023-02-06T03:45:02.600Z,-1.14
2023-02-06T03:47:32.144Z,-1.14
2023-02-06T03:50:00.768Z,-1.11
2023-02-06T03:52:35.134Z,-1.07
2023-02-06T03:55:09.283Z,-1.05
2023-02-06T03:57:38.792Z,-1.03
2023-02-06T04:00:09.948Z,-0.99
2023-02-06T04:02:42.274Z,-1.00
2023-02-06T04:05:14.882Z,-1.04
2023-02-06T04:07:45.368Z,-1.07
2023-02-06T04:10:15.070Z,-1.06
2023-02-06T04:12:43.781Z,-1.05
2023-02-06T04:15:13.023Z,-1.04
2023-02-06T04:17:57.561Z,-1.00
2023-02-06T04:20:13.074Z,-0.98
2023-02-06T04:22:44.355Z,-0.97
2023-02-06T04:25:13.793Z,-0.98
2023-02-06T04:27:43.727Z,-1.00
2023-02-06T04:30:16.648Z,-1.03
2023-02-06T04:32:45.683Z,-1.03
2023-02-06T04:35:14.958Z,-1.01
2023-02-06T04:37:44.058Z,-0.98
2023-02-06T04:40:14.431Z,-0.97
2023-02-06T04:42:44.854Z,-0.94
2023-02-06T04:45:13.910Z,-0.97
2023-02-06T04:47:44.792Z,-0.99
2023-02-06T04:50:13.376Z,-1.01
2023-02-06T04:52:43.694Z,-1.04
2023-02-06T04:55:12.926Z,-1.03
2023-02-06T04:57:43.243Z,-1.03
2023-02-06T05:00:16.288Z,-1.07
2023-02-06T05:02:46.192Z,-1.09
2023-02-06T05:05:15.914Z,-1.10
2023-02-06T05:07:45.396Z,-1.09
2023-02-06T05:10:15.321Z,-1.12
2023-02-06T05:12:43.914Z,-1.15
2023-02-06T05:15:15.076Z,-1.18
2023-02-06T05:17:44.972Z,-1.18
2023-02-06T05:20:13.744Z,-1.16
2023-02-06T05:22:44.040Z,-1.13
2023-02-06T05:25:16.986Z,-1.16
2023-02-06T05:27:45.862Z,-1.15
2023-02-06T05:30:16.844Z,-1.12
2023-02-06T05:32:46.455Z,-1.11
2023-02-06T05:35:15.559Z,-1.14
2023-02-06T05:37:44.620Z,-1.17
2023-02-06T05:40:14.133Z,-1.17
2023-02-06T05:42:44.020Z,-1.18
2023-02-06T05:45:13.567Z,-1.22
2023-02-06T05:47:42.927Z,-1.23
2023-02-06T05:50:12.072Z,-1.24
2023-02-06T05:52:42.276Z,-1.22
2023-02-06T05:55:13.065Z,-1.20
2023-02-06T05:57:42.174Z,-1.23
2023-02-06T06:00:13.276Z,-1.25
2023-02-06T06:02:44.200Z,-1.22
2023-02-06T06:05:13.413Z,-1.21
2023-02-06T06:07:44.040Z,-1.18
2023-02-06T06:10:14.528Z,-1.17
2023-02-06T06:12:43.432Z,-1.20
2023-02-06T06:15:13.202Z,-1.21
2023-02-06T06:17:42.273Z,-1.21
2023-02-06T06:20:12.059Z,-1.21
2023-02-06T06:22:41.841Z,-1.22
2023-02-06T06:25:11.612Z,-1.21
2023-02-06T06:27:41.532Z,-1.20
2023-02-06T06:30:12.651Z,-1.18
2023-02-06T06:32:43.489Z,-1.13
2023-02-06T06:35:12.614Z,-1.10
2023-02-06T06:37:41.364Z,-1.08
2023-02-06T06:40:11.539Z,-1.05
2023-02-06T06:42:40.561Z,-1.05
2023-02-06T06:45:10.242Z,-1.04
2023-02-06T06:47:38.986Z,-1.04
2023-02-06T06:50:09.485Z,-1.03
2023-02-06T06:52:40.159Z,-1.03
2023-02-06T06:55:10.968Z,-1.02
2023-02-06T06:57:42.099Z,-0.97
2023-02-06T07:00:14.302Z,-0.97
2023-02-06T07:02:43.277Z,-0.98
2023-02-06T07:05:20.805Z,-0.95
2023-02-06T07:07:59.828Z,-0.93
2023-02-06T07:10:31.799Z,-0.91
2023-02-06T07:13:02.108Z,-0.90
2023-02-06T07:15:32.289Z,-0.87
2023-02-06T07:18:02.953Z,-0.86
2023-02-06T07:20:33.717Z,-0.89
2023-02-06T07:23:03.639Z,-0.87
2023-02-06T07:25:34.861Z,-0.88
2023-02-06T07:28:04.367Z,-0.90
2023-02-06T07:30:34.965Z,-0.88
2023-02-06T07:33:05.918Z,-0.86
2023-02-06T07:35:35.642Z,-0.88
2023-02-06T07:38:04.760Z,-0.90
2023-02-06T07:40:44.766Z,-0.89
2023-02-06T07:43:07.403Z,-0.88
2023-02-06T07:45:37.679Z,-0.85
2023-02-06T07:48:07.670Z,-0.82
2023-02-06T07:50:49.641Z,-0.79
2023-02-06T07:53:20.075Z,-0.74
2023-02-06T07:55:49.937Z,-0.74
2023-02-06T07:58:19.821Z,-0.73
2023-02-06T08:00:49.745Z,-0.71
2023-02-06T08:03:21.262Z,-0.67
2023-02-06T08:05:49.913Z,-0.65
2023-02-06T08:08:20.456Z,-0.63
2023-02-06T08:10:51.264Z,-0.65
2023-02-06T08:13:21.919Z,-0.62
2023-02-06T08:16:09.493Z,-0.60
2023-02-06T08:18:38.376Z,-0.59
2023-02-06T08:21:10.932Z,-0.58
2023-02-06T08:23:39.601Z,-0.56
2023-02-06T08:26:15.771Z,-0.54
2023-02-06T08:28:48.245Z,-0.54
2023-02-06T08:31:24.450Z,-0.56
2023-02-06T08:33:54.230Z,-0.58
2023-02-06T08:36:23.340Z,-0.56
2023-02-06T08:38:53.345Z,-0.51
2023-02-06T08:41:28.545Z,-0.53
2023-02-06T08:44:01.028Z,-0.52
2023-02-06T08:46:31.819Z,-0.51
2023-02-06T08:49:04.939Z,-0.49
2023-02-06T08:51:35.215Z,-0.47
2023-02-06T08:54:07.100Z,-0.43
2023-02-06T08:56:37.245Z,-0.41
2023-02-06T08:59:07.048Z,-0.39
2023-02-06T09:01:39.326Z,-0.35
2023-02-06T09:04:10.405Z,-0.35
2023-02-06T09:06:44.013Z,-0.33
2023-02-06T09:09:13.510Z,-0.32
2023-02-06T09:11:45.033Z,-0.29
2023-02-06T09:14:17.320Z,-0.25
2023-02-06T09:16:47.977Z,-0.24
2023-02-06T09:19:18.159Z,-0.26
2023-02-06T09:21:52.054Z,-0.22
2023-02-06T09:24:23.122Z,-0.22
2023-02-06T09:27:00.314Z,-0.15
2023-02-06T09:29:32.561Z,-0.12
2023-02-06T09:32:05.616Z,-0.08
2023-02-06T09:34:36.656Z,-0.10
2023-02-06T09:37:06.821Z,-0.17
2023-02-06T09:39:38.027Z,-0.17
2023-02-06T09:42:21.224Z,-0.15
2023-02-06T09:44:54.621Z,-0.15
2023-02-06T09:47:33.372Z,-0.16
2023-02-06T09:50:29.399Z,-0.23
2023-02-06T09:53:04.608Z,-0.28
2023-02-06T09:56:02.550Z,-0.30
2023-02-06T09:58:52.605Z,-0.32
2023-02-06T10:01:37.788Z,-0.36
2023-02-06T10:04:28.567Z,-0.42
2023-02-06T10:07:21.964Z,-0.43
2023-02-06T13:17:58.176Z,-0.87
2023-02-06T13:20:29.861Z,-0.93
2023-02-06T13:23:18.002Z,-0.92
2023-02-06T13:25:48.848Z,-0.97
2023-02-06T13:28:28.072Z,-0.96
2023-02-06T13:31:07.504Z,-0.97
2023-02-06T13:33:44.613Z,-1.00
2023-02-06T13:36:19.104Z,-0.99
2023-02-06T13:38:48.970Z,-0.97
2023-02-06T13:41:33.526Z,-0.94
2023-02-06T13:44:28.508Z,-0.91
2023-02-06T13:47:24.318Z,-0.94
2023-02-06T13:50:33.166Z,-0.97
2023-02-06T13:53:25.802Z,-0.94
2023-02-06T13:56:21.136Z,-0.94
2023-02-06T13:58:53.048Z,-0.92
2023-02-06T14:01:25.574Z,-0.85
2023-02-06T14:03:54.604Z,-0.78
2023-02-06T14:06:47.706Z,-0.77
2023-02-06T14:09:53.625Z,-0.75
2023-02-06T14:12:59.649Z,-0.83
2023-02-06T14:16:10.492Z,-0.86
2023-02-06T14:18:52.662Z,-0.84
2023-02-06T14:21:49.917Z,-0.83
2023-02-06T14:24:40.689Z,-0.82
2023-02-06T14:27:40.990Z,-0.81
2023-02-06T14:30:52.776Z,-0.80
2023-02-06T14:33:48.130Z,-0.78
2023-02-06T14:37:00.004Z,-0.79
2023-02-06T14:39:48.144Z,-0.77
2023-02-06T14:42:32.894Z,-0.78
2023-02-06T14:45:06.250Z,-0.79
2023-02-06T14:47:45.041Z,-0.82
2023-02-06T14:50:24.870Z,-0.83
2023-02-06T14:52:58.856Z,-0.83
2023-02-06T14:55:42.019Z,-0.80
2023-02-06T14:58:26.923Z,-0.81
2023-02-06T15:00:58.341Z,-0.80
2023-02-06T15:03:28.660Z,-0.82
2023-02-06T15:06:07.177Z,-0.76
2023-02-06T15:08:37.582Z,-0.78
2023-02-06T15:11:14.953Z,-0.80
2023-02-06T15:13:44.117Z,-0.83
2023-02-06T15:16:14.149Z,-0.87
2023-02-06T15:18:45.331Z,-0.87
2023-02-06T15:21:21.694Z,-0.89
2023-02-06T15:24:18.145Z,-0.89
2023-02-06T15:27:14.769Z,-0.92
2023-02-06T15:29:50.321Z,-0.96
2023-02-06T15:32:33.861Z,-0.96
2023-02-06T15:35:02.769Z,-0.96
2023-02-06T15:37:35.466Z,-0.97
2023-02-06T15:40:18.590Z,-1.00
2023-02-06T15:42:49.048Z,-1.04
2023-02-06T15:45:26.018Z,-1.08
2023-02-06T15:47:56.664Z,-1.13
2023-02-06T15:50:28.627Z,-1.17
2023-02-06T15:53:01.422Z,-1.19
2023-02-06T15:55:34.716Z,-1.18
2023-02-06T15:58:05.612Z,-1.17
2023-02-06T16:00:37.771Z,-1.17
2023-02-06T16:03:14.643Z,-1.17
2023-02-06T16:05:44.988Z,-1.18
2023-02-06T16:08:23.319Z,-1.26
2023-02-06T16:10:58.170Z,-1.30
2023-02-06T16:13:34.237Z,-1.32
2023-02-06T16:16:15.108Z,-1.32
2023-02-06T16:18:46.394Z,-1.34
2023-02-06T16:21:22.903Z,-1.39
2023-02-06T16:24:04.505Z,-1.39
2023-02-06T16:26:52.864Z,-1.38
2023-02-06T16:29:29.642Z,-1.38
2023-02-06T16:32:03.266Z,-1.41
2023-02-06T16:34:43.499Z,-1.42
2023-02-06T16:37:23.151Z,-1.40
2023-02-06T16:39:53.053Z,-1.38
2023-02-06T16:42:36.379Z,-1.41
2023-02-06T16:45:19.863Z,-1.41
2023-02-06T16:47:49.407Z,-1.36
2023-02-06T16:50:21.945Z,-1.36
2023-02-06T16:52:54.716Z,-1.35
2023-02-06T16:55:26.249Z,-1.35
2023-02-06T16:57:59.504Z,-1.39
2023-02-06T17:00:31.804Z,-1.42
2023-02-06T17:03:00.966Z,-1.44
2023-02-06T17:05:32.521Z,-1.46
2023-02-06T17:08:02.137Z,-1.50
2023-02-06T17:10:32.801Z,-1.54
2023-02-06T17:13:03.707Z,-1.54
2023-02-06T17:15:35.440Z,-1.54
2023-02-06T17:18:05.819Z,-1.54
2023-02-06T17:20:38.639Z,-1.55
2023-02-06T17:23:10.842Z,-1.55
2023-02-06T17:25:41.111Z,-1.62
2023-02-06T17:28:14.023Z,-1.66
2023-02-06T17:30:44.125Z,-1.64
2023-02-06T17:33:14.409Z,-1.62
2023-02-06T17:35:43.605Z,-1.62
2023-02-06T17:38:13.127Z,-1.61
2023-02-06T17:40:44.787Z,-1.63
2023-02-06T17:43:18.828Z,-1.66
2023-02-06T17:45:49.150Z,-1.71
2023-02-06T17:48:21.168Z,-1.77
2023-02-06T17:50:52.457Z,-1.89
2023-02-06T17:53:22.006Z,-1.93
2023-02-06T17:55:50.848Z,-1.94
2023-02-06T17:58:20.416Z,-1.94
2023-02-06T18:00:51.403Z,-1.93
2023-02-06T18:03:20.844Z,-1.90
2023-02-06T18:05:59.655Z,-1.86
2023-02-06T18:08:29.265Z,-1.87
2023-02-06T18:11:00.415Z,-1.86
2023-02-06T18:13:30.715Z,-1.87
2023-02-06T18:16:01.122Z,-1.89
2023-02-06T18:18:31.024Z,-1.92
2023-02-06T18:21:00.777Z,-1.93
2023-02-06T18:23:30.898Z,-1.95
2023-02-06T18:26:05.522Z,-1.96
2023-02-06T18:28:36.100Z,-1.96
2023-02-06T18:31:27.113Z,-1.97
2023-02-06T18:33:58.934Z,-1.96
2023-02-06T18:36:30.448Z,-1.97
2023-02-06T18:39:02.058Z,-1.99
2023-02-06T18:41:50.780Z,-2.00
2023-02-06T18:44:21.385Z,-1.99
2023-02-06T18:46:51.752Z,-1.99
2023-02-06T18:49:22.081Z,-2.00
2023-02-06T18:51:52.235Z,-2.02
2023-02-06T18:54:22.036Z,-2.02
2023-02-06T18:56:51.890Z,-2.04
2023-02-06T18:59:22.956Z,-2.06
2023-02-06T19:01:55.436Z,-2.06
2023-02-06T19:04:24.597Z,-2.07
2023-02-06T19:06:53.766Z,-2.10
2023-02-06T19:09:24.584Z,-2.10
2023-02-06T19:11:54.118Z,-2.13
2023-02-06T19:14:25.798Z,-2.17
2023-02-06T19:16:58.189Z,-2.18
2023-02-06T19:19:28.629Z,-2.22
2023-02-06T19:21:59.413Z,-2.27
2023-02-06T19:24:31.456Z,-2.30
2023-02-06T19:29:46.335Z,-2.26
2023-02-06T19:32:17.941Z,-2.25
2023-02-06T19:34:48.405Z,-2.25
2023-02-06T19:37:19.065Z,-2.28
2023-02-06T19:39:48.901Z,-2.29
2023-02-06T19:42:20.285Z,-2.28
2023-02-06T19:44:57.459Z,-2.34
2023-02-06T19:47:27.351Z,-2.40
2023-02-06T19:49:56.970Z,-2.45
2023-02-06T19:52:28.315Z,-2.46
2023-02-06T19:54:58.260Z,-2.45
2023-02-06T19:57:27.637Z,-2.47
2023-02-06T19:59:57.872Z,-2.52
2023-02-06T20:02:27.964Z,-2.57
2023-02-06T20:04:57.640Z,-2.58
2023-02-06T20:07:28.107Z,-2.58
2023-02-06T20:09:59.364Z,-2.59
2023-02-06T20:12:32.381Z,-2.58
2023-02-06T20:15:02.689Z,-2.56
2023-02-06T20:17:33.462Z,-2.57
2023-02-06T20:20:04.542Z,-2.59
2023-02-06T20:22:35.938Z,-2.63
2023-02-06T20:25:08.358Z,-2.65
2023-02-06T20:27:38.040Z,-2.67
2023-02-06T20:30:09.629Z,-2.68
2023-02-06T20:32:39.372Z,-2.67
2023-02-06T20:35:09.776Z,-2.65
2023-02-06T20:37:39.597Z,-2.69
2023-02-06T20:40:12.087Z,-2.68
2023-02-06T20:42:42.750Z,-2.66
2023-02-06T20:45:16.557Z,-2.62
2023-02-06T20:47:46.000Z,-2.59
2023-02-06T20:50:17.548Z,-2.58
2023-02-06T20:52:47.440Z,-2.58
2023-02-06T20:55:19.294Z,-2.56
2023-02-06T20:57:48.504Z,-2.55
2023-02-06T21:00:18.493Z,-2.55
2023-02-06T21:02:51.045Z,-2.53
2023-02-06T21:05:21.060Z,-2.50
2023-02-06T21:07:51.001Z,-2.51
2023-02-06T21:10:23.063Z,-2.49
2023-02-06T21:12:52.971Z,-2.48
2023-02-06T21:15:23.201Z,-2.45
2023-02-06T21:17:54.702Z,-2.42
2023-02-06T21:20:23.398Z,-2.42
2023-02-06T21:22:54.289Z,-2.44
2023-02-06T21:25:26.394Z,-2.43
2023-02-06T21:27:55.671Z,-2.40
2023-02-06T21:30:27.056Z,-2.42
2023-02-06T21:32:57.274Z,-2.44
2023-02-06T21:35:31.093Z,-2.47
2023-02-06T21:38:01.329Z,-2.45
2023-02-06T21:40:31.370Z,-2.48
2023-02-06T21:43:00.378Z,-2.56
2023-02-06T21:45:30.145Z,-2.66
2023-02-06T21:48:00.754Z,-2.67
2023-02-06T21:50:31.634Z,-2.67
2023-02-06T21:53:01.348Z,-2.69
2023-02-06T21:55:32.640Z,-2.68
2023-02-06T21:58:03.564Z,-2.70
2023-02-06T22:00:34.321Z,-2.69
2023-02-06T22:03:05.549Z,-2.72
2023-02-06T22:05:37.068Z,-2.72
2023-02-06T22:08:07.117Z,-2.72
2023-02-06T22:10:37.665Z,-2.71
2023-02-06T22:13:07.879Z,-2.70
2023-02-06T22:15:59.355Z,-2.70
2023-02-06T22:18:29.189Z,-2.70
2023-02-06T22:21:07.472Z,-2.67
2023-02-06T22:23:37.732Z,-2.65
2023-02-06T22:26:09.101Z,-2.65
2023-02-06T22:28:38.772Z,-2.65
2023-02-06T22:31:18.065Z,-2.64
2023-02-06T22:33:47.512Z,-2.63
2023-02-06T22:36:23.043Z,-2.63
2023-02-06T22:39:02.623Z,-2.63
2023-02-06T22:41:33.260Z,-2.60
2023-02-06T22:44:02.646Z,-2.63
2023-02-06T22:46:36.028Z,-2.62
2023-02-06T22:49:07.575Z,-2.63
2023-02-06T22:51:38.505Z,-2.62
2023-02-06T22:54:09.581Z,-2.62
2023-02-06T22:56:40.829Z,-2.59
2023-02-06T22:59:20.097Z,-2.58
2023-02-06T23:01:55.760Z,-2.56
2023-02-06T23:04:30.972Z,-2.60
2023-02-06T23:07:01.167Z,-2.63
2023-02-06T23:09:35.210Z,-2.67
2023-02-06T23:12:09.596Z,-2.67
2023-02-06T23:14:39.945Z,-2.69
2023-02-06T23:17:10.619Z,-2.68
2023-02-06T23:19:41.529Z,-2.69
2023-02-06T23:22:13.084Z,-2.71
2023-02-06T23:24:43.865Z,-2.72
2023-02-06T23:27:15.014Z,-2.68
2023-02-06T23:29:47.175Z,-2.66
2023-02-06T23:32:16.467Z,-2.68
2023-02-06T23:34:46.381Z,-2.70
2023-02-06T23:37:18.188Z,-2.69
2023-02-06T23:39:47.920Z,-2.66
2023-02-06T23:42:17.675Z,-2.68
2023-02-06T23:44:47.748Z,-2.68
2023-02-06T23:47:17.252Z,-2.73
2023-02-06T23:49:46.813Z,-2.77
2023-02-06T23:52:16.986Z,-2.82
2023-02-06T23:54:47.287Z,-2.88
2023-02-06T23:57:19.366Z,-2.89
2023-02-06T23:59:51.116Z,-2.84
